Дата Пункты Температура Давл., мм. Влажн., % Ветер Погодные явления
Воздуха Воды Направл. Скорость
24.08.19 09:00 Одесса 25.0 23.0 762 61 Пн-З 2 09 ГОДИН
24.08.19 06:00 Одесса 22.0 23.0 762 71 Пн-З 2 06 ГОДИН
24.08.19 03:00 Одесса 24.0 23.0 762 63 Пн-З 1 03 ГОДИНИ
23.08.19 09:00 Одесса 30.0 23.0 762 45 Пн-З 2 21 ГОДИНУ
23.08.19 06:00 Одесса 31.0 23.0 761 39 Пн 0 18 ГОДИН
23.08.19 03:00 Одесса 33.0 23.0 761 38 Пн 2 15 ГОДИН
23.08.19 12:00 Одесса 29.0 23.0 762 55 Пн 2 12 ГОДИН
23.08.19 09:00 Одесса 25.0 23.0 762 59 Пн 1 09 ГОДИН
23.08.19 06:00 Одесса 21.0 23.0 761 72 Пн-З 2 06 ГОДИН
23.08.19 03:00 Одесса 23.0 23.0 761 66 Пн-З 2 03 ГОДИНИ
22.08.19 09:00 Одесса 28.0 23.0 760 34 Пн 1 21 ГОДИНУ
22.08.19 06:00 Одесса 30.0 23.0 759 40 Пн 1 18 ГОДИН
22.08.19 03:00 Одесса 34.0 23.0 760 28 Пн 2 15 ГОДИН
22.08.19 12:00 Одесса 33.0 22.0 760 28 Пн 2 12 ГОДИН
22.08.19 09:00 Одесса 26.0 22.0 760 41 Пн-З 2 09 ГОДИН
22.08.19 06:00 Одесса 24.0 22.0 760 44 Пн-З 2 06 ГОДИН
22.08.19 03:00 Одесса 25.0 22.0 759 41 Пн-З 1 03 ГОДИНИ
21.08.19 09:00 Одесса 27.0 23.0 759 41 Пн 2 21 ГОДИНУ
21.08.19 06:00 Одесса 30.0 23.0 759 37 Пн-С 2 18 ГОДИН
21.08.19 03:00 Одесса 31.0 23.0 760 36 С 1 15 ГОДИН
Количество строк
1 2 3 4 5 6 7 8 9 10
Page 9 of 530